Vira, Pennsylvania
Current Conditions -  °F | °C
As of 4:35 AM on Thursday 23 Oct 2014 (Local Time) from KUNV Reporting Station
Overcast Overcast  
Wind Chill: 43°   Ceiling: 1700
Heat Index: 47°   Visibility: 10mi
Dew Point: 41°   Wind: 9mph
Humidity: 79%   Direction: 360°N
Pressure: 29.99"   Gusts: 16mph
Location:  40.6073°N, 77.5812°W
Report Text: KUNV 230835Z AUTO 36008G14KT 10SM OVC017 09/05 A2999 RMK AO2 LTG DSNT E T00860052
Loading
Personal Weather Stations






























Interactive Weather Map
Tropical Storm Tracking
New forecast layout! Learn more

10-Day Weather Forecast

Advertisements
Track Severe Weather on mobile